createdAt,value
2023-04-10T00:01:46.305Z,95547.44
2023-04-10T00:04:13.160Z,95538.94
2023-04-10T00:06:39.845Z,95543.66
2023-04-10T00:09:06.442Z,95544.03
2023-04-10T00:11:33.171Z,95547.81
2023-04-10T00:14:00.274Z,95538.16
2023-04-10T00:16:26.941Z,95544.06
2023-04-10T00:18:53.593Z,95539.16
2023-04-10T00:21:20.226Z,95541.97
2023-04-10T00:23:46.840Z,95534.03
2023-04-10T00:26:13.455Z,95532.72
2023-04-10T00:28:40.073Z,95526.25
2023-04-10T00:31:06.744Z,95533.41
2023-04-10T00:33:33.355Z,95534.28
2023-04-10T00:36:00.060Z,95539.00
2023-04-10T00:38:26.741Z,95534.38
2023-04-10T00:40:53.321Z,95531.09
2023-04-10T00:43:20.078Z,95537.88
2023-04-10T00:45:47.408Z,95521.28
2023-04-10T00:48:15.822Z,95537.38
2023-04-10T00:50:42.690Z,95530.72
2023-04-10T00:53:09.284Z,95532.56
2023-04-10T00:55:36.195Z,95539.66
2023-04-10T00:58:02.979Z,95536.44
2023-04-10T01:00:30.029Z,95538.19
2023-04-10T01:02:56.817Z,95544.88
2023-04-10T01:05:27.061Z,95537.69
2023-04-10T01:08:02.513Z,95522.91
2023-04-10T01:10:38.750Z,95534.44
2023-04-10T01:13:40.446Z,95533.50
2023-04-10T01:16:18.810Z,95533.97
2023-04-10T01:18:53.384Z,95529.56
2023-04-10T01:21:22.914Z,95532.34
2023-04-10T01:24:17.012Z,95528.88
2023-04-10T01:27:15.484Z,95521.00
2023-04-10T01:29:47.924Z,95528.59
2023-04-10T01:32:20.241Z,95519.53
2023-04-10T01:34:52.983Z,95530.00
2023-04-10T01:37:30.129Z,95525.63
2023-04-10T01:40:03.073Z,95525.41
2023-04-10T01:42:34.982Z,95531.25
2023-04-10T01:45:04.899Z,95528.63
2023-04-10T01:47:32.071Z,95524.34
2023-04-10T01:50:01.230Z,95520.72
2023-04-10T01:52:31.175Z,95525.19
2023-04-10T01:54:58.856Z,95529.63
2023-04-10T01:57:26.017Z,95525.44
2023-04-10T01:59:52.752Z,95530.13
2023-04-10T02:02:19.680Z,95518.84
2023-04-10T02:04:46.613Z,95529.06
2023-04-10T02:07:28.424Z,95532.88
2023-04-10T02:10:06.876Z,95519.25
2023-04-10T02:12:46.544Z,95525.03
2023-04-10T02:15:16.849Z,95519.91
2023-04-10T02:17:45.018Z,95521.78
2023-04-10T02:20:13.763Z,95531.59
2023-04-10T02:22:42.778Z,95534.47
2023-04-10T02:25:10.150Z,95536.31
2023-04-10T02:27:37.888Z,95527.91
2023-04-10T02:30:05.421Z,95524.63
2023-04-10T02:32:32.833Z,95522.50
2023-04-10T02:35:00.890Z,95530.00
2023-04-10T02:37:27.642Z,95533.97
2023-04-10T02:39:55.500Z,95528.47
2023-04-10T02:42:22.498Z,95531.16
2023-04-10T02:44:49.233Z,95528.84
2023-04-10T02:47:15.916Z,95524.69
2023-04-10T02:49:42.696Z,95518.22
2023-04-10T02:52:09.635Z,95523.25
2023-04-10T02:54:36.615Z,95512.31
2023-04-10T02:57:03.308Z,95513.59
2023-04-10T02:59:30.016Z,95510.56
2023-04-10T03:01:56.733Z,95519.94
2023-04-10T03:04:23.574Z,95515.31
2023-04-10T03:06:50.255Z,95517.19
2023-04-10T03:09:16.889Z,95511.97
2023-04-10T03:11:43.508Z,95524.41
2023-04-10T03:14:10.123Z,95519.53
2023-04-10T03:16:37.345Z,95518.41
2023-04-10T03:19:04.386Z,95520.47
2023-04-10T03:21:31.175Z,95515.44
2023-04-10T03:23:57.816Z,95518.16
2023-04-10T03:26:24.502Z,95516.75
2023-04-10T03:28:51.241Z,95521.78
2023-04-10T03:31:18.068Z,95519.91
2023-04-10T03:33:45.029Z,95533.00
2023-04-10T03:36:11.811Z,95538.78
2023-04-10T03:38:38.499Z,95526.25
2023-04-10T03:41:07.646Z,95531.81
2023-04-10T03:43:34.918Z,95526.19
2023-04-10T03:46:01.587Z,95521.63
2023-04-10T03:48:28.611Z,95532.13
2023-04-10T03:50:55.371Z,95528.19
2023-04-10T03:53:22.080Z,95520.69
2023-04-10T03:55:48.828Z,95520.88
2023-04-10T03:58:18.679Z,95520.06
2023-04-10T04:00:46.377Z,95518.00
2023-04-10T04:03:14.932Z,95520.56
2023-04-10T04:05:41.891Z,95522.34
2023-04-10T04:08:08.504Z,95525.28
2023-04-10T04:10:35.149Z,95519.66
2023-04-10T04:13:01.879Z,95524.19
2023-04-10T04:15:28.654Z,95525.16
2023-04-10T04:17:55.324Z,95517.69
2023-04-10T04:20:22.312Z,95524.19
2023-04-10T04:22:48.916Z,95530.09
2023-04-10T04:25:15.518Z,95531.72
2023-04-10T04:27:42.150Z,95531.72
2023-04-10T04:30:09.256Z,95530.84
2023-04-10T04:32:35.920Z,95525.47
2023-04-10T04:35:02.754Z,95536.31
2023-04-10T04:37:29.786Z,95539.78
2023-04-10T04:39:57.812Z,95532.09
2023-04-10T04:42:24.525Z,95542.63
2023-04-10T04:44:51.130Z,95540.00
2023-04-10T04:47:17.745Z,95539.91
2023-04-10T04:49:44.392Z,95542.84
2023-04-10T04:52:11.023Z,95539.84
2023-04-10T04:54:37.651Z,95539.59
2023-04-10T04:57:04.274Z,95543.09
2023-04-10T04:59:30.902Z,95538.72
2023-04-10T05:01:58.144Z,95547.81
2023-04-10T05:04:25.117Z,95539.19
2023-04-10T05:06:52.244Z,95544.56
2023-04-10T05:09:18.939Z,95544.94
2023-04-10T05:11:45.549Z,95551.50
2023-04-10T05:14:12.175Z,95557.31
2023-04-10T05:16:38.825Z,95555.38
2023-04-10T05:19:05.460Z,95553.50
2023-04-10T05:21:32.104Z,95549.72
2023-04-10T05:23:58.735Z,95546.16
2023-04-10T05:26:25.356Z,95548.28
2023-04-10T05:28:52.235Z,95542.03
2023-04-10T05:31:18.973Z,95549.69
2023-04-10T05:33:45.634Z,95546.22
2023-04-10T05:36:13.334Z,95544.09
2023-04-10T05:38:40.175Z,95548.97
2023-04-10T05:41:07.008Z,95552.03
2023-04-10T05:43:33.696Z,95535.28
2023-04-10T05:46:00.474Z,95539.00
2023-04-10T05:48:27.220Z,95540.03
2023-04-10T05:50:53.935Z,95538.81
2023-04-10T05:53:20.967Z,95540.06
2023-04-10T05:55:51.003Z,95538.44
2023-04-10T05:58:17.649Z,95541.28
2023-04-10T06:00:44.235Z,95551.03
2023-04-10T06:03:10.994Z,95544.13
2023-04-10T06:05:37.768Z,95551.41
2023-04-10T06:08:04.523Z,95553.25
2023-04-10T06:10:31.278Z,95551.41
2023-04-10T06:12:57.885Z,95550.41
2023-04-10T06:15:24.573Z,95555.22
2023-04-10T06:17:51.230Z,95553.63
2023-04-10T06:20:17.874Z,95551.19
2023-04-10T06:22:44.535Z,95560.03
2023-04-10T06:25:11.151Z,95554.28
2023-04-10T06:27:37.789Z,95557.22
2023-04-10T06:30:05.100Z,95553.53
2023-04-10T06:32:31.931Z,95554.72
2023-04-10T06:34:58.536Z,95553.16
2023-04-10T06:37:29.781Z,95558.59
2023-04-10T06:40:08.811Z,95565.53
2023-04-10T06:42:36.098Z,95563.25
2023-04-10T06:45:03.981Z,95563.22
2023-04-10T06:47:30.775Z,95570.66
2023-04-10T06:49:57.568Z,95569.03
2023-04-10T06:52:24.204Z,95573.13
2023-04-10T06:54:50.868Z,95576.16
2023-04-10T06:57:17.928Z,95573.84
2023-04-10T06:59:45.342Z,95580.28
2023-04-10T07:02:12.083Z,95570.88
2023-04-10T07:04:38.801Z,95574.84
2023-04-10T07:07:05.563Z,95576.38
2023-04-10T07:09:32.247Z,95581.59
2023-04-10T07:11:58.913Z,95570.22
2023-04-10T07:14:25.529Z,95570.31
2023-04-10T07:16:52.321Z,95571.66
2023-04-10T07:19:19.034Z,95566.09
2023-04-10T07:21:45.769Z,95569.47
2023-04-10T07:24:12.413Z,95564.44
2023-04-10T07:26:39.064Z,95564.19
2023-04-10T07:29:07.376Z,95573.84
2023-04-10T07:31:34.087Z,95572.59
2023-04-10T07:34:01.670Z,95564.34
2023-04-10T07:36:28.305Z,95568.38
2023-04-10T07:38:57.667Z,95568.78
2023-04-10T07:41:24.368Z,95563.84
2023-04-10T07:43:51.106Z,95567.47
2023-04-10T07:46:18.014Z,95561.84
2023-04-10T07:48:44.708Z,95562.38
2023-04-10T07:51:11.329Z,95560.75
2023-04-10T07:53:38.157Z,95570.84
2023-04-10T07:56:05.522Z,95562.16
2023-04-10T07:58:32.166Z,95560.56
2023-04-10T08:00:59.164Z,95560.53
2023-04-10T08:03:26.529Z,95564.88
2023-04-10T08:05:53.270Z,95567.63
2023-04-10T08:08:19.937Z,95577.06
2023-04-10T08:10:46.571Z,95566.59
2023-04-10T08:13:13.193Z,95569.34
2023-04-10T08:15:40.008Z,95566.28
2023-04-10T08:18:06.786Z,95569.03
2023-04-10T08:20:33.468Z,95572.50
2023-04-10T08:23:09.225Z,95569.88
2023-04-10T08:25:46.212Z,95560.63
2023-04-10T08:28:12.885Z,95555.16
2023-04-10T08:30:41.120Z,95564.22
2023-04-10T08:33:08.036Z,95556.22
2023-04-10T08:35:34.662Z,95558.16
2023-04-10T08:38:13.230Z,95564.97
2023-04-10T08:40:41.517Z,95570.59
2023-04-10T08:43:08.192Z,95567.78
2023-04-10T08:45:34.813Z,95566.19
2023-04-10T08:48:06.118Z,95570.69
2023-04-10T08:50:35.071Z,95566.91
2023-04-10T08:53:11.513Z,95566.78
2023-04-10T08:55:40.186Z,95565.88
2023-04-10T08:58:07.736Z,95571.97
2023-04-10T09:00:36.277Z,95562.78
2023-04-10T09:03:03.378Z,95565.56
2023-04-10T09:05:31.335Z,95566.91
2023-04-10T09:07:59.185Z,95565.16
2023-04-10T09:10:25.795Z,95563.59
2023-04-10T09:12:52.536Z,95566.91
2023-04-10T09:15:19.179Z,95556.00
2023-04-10T09:18:03.320Z,95563.06
2023-04-10T09:20:32.080Z,95558.75
2023-04-10T09:22:58.797Z,95566.38
2023-04-10T09:25:36.786Z,95555.88
2023-04-10T09:28:09.000Z,95555.75
2023-04-10T09:30:40.487Z,95560.13
2023-04-10T09:33:27.901Z,95568.16
2023-04-10T09:35:58.073Z,95563.28
2023-04-10T09:38:24.707Z,95555.56
2023-04-10T09:40:52.967Z,95553.41
2023-04-10T09:43:26.424Z,95552.31
2023-04-10T09:45:55.876Z,95547.75
2023-04-10T09:48:24.756Z,95556.03
2023-04-10T09:50:51.443Z,95548.47
2023-04-10T09:53:20.017Z,95558.47
2023-04-10T09:55:49.086Z,95558.66
2023-04-10T09:58:17.015Z,95552.38
2023-04-10T10:00:45.913Z,95550.09
2023-04-10T10:03:18.103Z,95545.59
2023-04-10T10:05:47.956Z,95551.97
2023-04-10T10:08:15.959Z,95536.59
2023-04-10T10:10:58.679Z,95542.03
2023-04-10T10:13:49.622Z,95535.53
2023-04-10T10:16:28.636Z,95532.53
2023-04-10T10:19:04.909Z,95530.97
2023-04-10T10:21:33.106Z,95529.63
2023-04-10T10:24:01.489Z,95520.34
2023-04-10T10:26:30.467Z,95523.78
2023-04-10T10:29:03.194Z,95519.84
2023-04-10T10:31:33.527Z,95523.09
2023-04-10T10:34:01.766Z,95519.88
2023-04-10T10:36:28.381Z,95509.66
2023-04-10T10:39:34.632Z,95509.31
2023-04-10T10:42:30.698Z,95504.38
2023-04-10T10:45:15.423Z,95502.75
2023-04-10T10:47:47.364Z,95502.91
2023-04-10T10:50:14.025Z,95509.66
2023-04-10T10:52:43.246Z,95509.78
2023-04-10T10:55:21.843Z,95506.22
2023-04-10T10:57:49.943Z,95504.81
2023-04-10T11:00:16.906Z,95507.38
2023-04-10T11:02:44.036Z,95510.94
2023-04-10T11:05:10.919Z,95508.06
2023-04-10T11:08:00.354Z,95504.63
2023-04-10T11:11:05.092Z,95499.13
2023-04-10T11:13:36.841Z,95496.94
2023-04-10T11:16:06.097Z,95499.88
2023-04-10T11:18:44.816Z,95500.69
2023-04-10T11:21:22.705Z,95502.59
2023-04-10T11:23:52.489Z,95508.88
2023-04-10T11:26:34.855Z,95511.66
2023-04-10T11:29:18.986Z,95511.47
2023-04-10T11:31:56.307Z,95510.81
2023-04-10T11:34:23.886Z,95510.78
2023-04-10T11:36:51.077Z,95517.56
2023-04-10T11:39:18.511Z,95510.09
2023-04-10T11:41:47.673Z,95513.25
2023-04-10T11:44:34.819Z,95503.69
2023-04-10T11:47:01.834Z,95503.94
2023-04-10T11:49:32.624Z,95499.66
2023-04-10T11:51:59.299Z,95495.25
2023-04-10T11:54:28.312Z,95486.03
2023-04-10T11:57:13.332Z,95473.53
2023-04-10T11:59:40.006Z,95477.94
2023-04-10T12:02:12.048Z,95477.97
2023-04-10T12:04:39.092Z,95482.31
2023-04-10T12:07:06.237Z,95474.72
2023-04-10T12:09:33.054Z,95479.16
2023-04-10T12:12:02.053Z,95473.28
2023-04-10T12:14:32.287Z,95470.94
2023-04-10T12:17:00.421Z,95479.09
2023-04-10T12:19:28.025Z,95483.28
2023-04-10T12:21:55.693Z,95478.91
2023-04-10T12:24:50.884Z,95472.41
2023-04-10T12:27:21.465Z,95481.13
2023-04-10T12:29:50.942Z,95470.91
2023-04-10T12:32:18.059Z,95467.00
2023-04-10T12:34:55.426Z,95466.06
2023-04-10T12:37:22.076Z,95466.84
2023-04-10T12:39:51.923Z,95463.22
2023-04-10T12:42:23.256Z,95464.19
2023-04-10T12:44:54.289Z,95448.22
2023-04-10T12:47:22.118Z,95441.53
2023-04-10T12:50:09.978Z,95437.44
2023-04-10T12:52:39.230Z,95436.94
2023-04-10T12:55:19.183Z,95436.22
2023-04-10T12:57:47.846Z,95438.84
2023-04-10T13:00:17.392Z,95436.03
2023-04-10T13:02:45.167Z,95430.09
2023-04-10T13:05:12.925Z,95426.41
2023-04-10T13:07:40.409Z,95425.78
2023-04-10T13:10:08.234Z,95414.91
2023-04-10T13:12:35.825Z,95425.66
2023-04-10T13:15:02.599Z,95413.72
2023-04-10T13:17:29.342Z,95413.41
2023-04-10T13:19:57.205Z,95416.44
2023-04-10T13:22:23.817Z,95420.00
2023-04-10T13:24:50.493Z,95416.03
2023-04-10T13:27:17.146Z,95410.44
2023-04-10T13:29:43.839Z,95410.25
2023-04-10T13:32:10.534Z,95416.31
2023-04-10T13:34:37.624Z,95418.16
2023-04-10T13:37:04.475Z,95414.28
2023-04-10T13:39:31.571Z,95416.28
2023-04-10T13:41:59.354Z,95417.94
2023-04-10T13:44:26.221Z,95418.28
2023-04-10T13:46:53.183Z,95410.56
2023-04-10T13:49:20.861Z,95419.28
2023-04-10T13:51:47.937Z,95416.22
2023-04-10T13:54:14.603Z,95418.25
2023-04-10T13:56:41.274Z,95421.16
2023-04-10T13:59:08.053Z,95420.00
2023-04-10T14:01:34.800Z,95422.16
2023-04-10T14:04:01.562Z,95419.09
2023-04-10T14:06:28.325Z,95415.34
2023-04-10T14:08:55.118Z,95421.13
2023-04-10T14:11:22.060Z,95434.81
2023-04-10T14:13:49.023Z,95419.09
2023-04-10T14:16:15.740Z,95429.25
2023-04-10T14:18:42.403Z,95419.19
2023-04-10T14:21:09.061Z,95413.28
2023-04-10T14:23:35.919Z,95412.97
2023-04-10T14:26:04.545Z,95411.53
2023-04-10T14:28:31.217Z,95413.78
2023-04-10T14:30:57.990Z,95407.00
2023-04-10T14:33:24.641Z,95411.31
2023-04-10T14:35:51.359Z,95398.28
2023-04-10T14:38:18.029Z,95399.22
2023-04-10T14:40:44.683Z,95389.53
2023-04-10T14:43:11.354Z,95395.69
2023-04-10T14:45:37.959Z,95398.34
2023-04-10T14:48:04.728Z,95398.34
2023-04-10T14:50:32.316Z,95390.00
2023-04-10T14:52:59.893Z,95387.19
2023-04-10T14:55:28.862Z,95385.44
2023-04-10T14:57:58.231Z,95380.97
2023-04-10T15:00:25.780Z,95379.88
2023-04-10T15:02:52.625Z,95376.41
2023-04-10T15:05:19.505Z,95374.25
2023-04-10T15:07:46.247Z,95371.06
2023-04-10T15:10:13.056Z,95364.31
2023-04-10T15:12:39.786Z,95362.38
2023-04-10T15:15:07.150Z,95367.06
2023-04-10T15:17:33.888Z,95366.78
2023-04-10T15:20:00.783Z,95357.78
2023-04-10T15:22:27.500Z,95357.06
2023-04-10T15:24:54.278Z,95366.84
2023-04-10T15:27:21.325Z,95361.22
2023-04-10T15:29:48.292Z,95357.97
2023-04-10T15:32:15.155Z,95344.81
2023-04-10T15:34:41.886Z,95353.34
2023-04-10T15:37:08.573Z,95343.88
2023-04-10T15:39:35.601Z,95347.81
2023-04-10T15:42:03.200Z,95353.94
2023-04-10T15:44:29.896Z,95349.94
2023-04-10T15:46:56.745Z,95346.44
2023-04-10T15:49:36.213Z,95353.56
2023-04-10T15:52:06.265Z,95351.81
2023-04-10T15:54:34.498Z,95350.69
2023-04-10T15:57:01.309Z,95355.72
2023-04-10T15:59:28.382Z,95350.81
2023-04-10T16:01:55.133Z,95345.97
2023-04-10T16:04:21.994Z,95334.19
2023-04-10T16:06:48.723Z,95346.44
2023-04-10T16:09:24.700Z,95350.31
2023-04-10T16:11:53.328Z,95359.97
2023-04-10T16:14:20.120Z,95359.06
2023-04-10T16:16:46.833Z,95354.72
2023-04-10T16:19:13.576Z,95353.03
2023-04-10T16:21:40.237Z,95342.38
2023-04-10T16:24:07.077Z,95337.34
2023-04-10T16:26:33.681Z,95329.09
2023-04-10T16:29:00.315Z,95329.97
2023-04-10T16:31:26.967Z,95328.09
2023-04-10T16:33:53.627Z,95330.88
2023-04-10T16:36:20.248Z,95320.56
2023-04-10T16:38:46.863Z,95322.78
2023-04-10T16:41:13.460Z,95330.97
2023-04-10T16:43:42.893Z,95333.22
2023-04-10T16:46:09.605Z,95337.56
2023-04-10T16:48:36.389Z,95333.16
2023-04-10T16:51:03.130Z,95334.47
2023-04-10T16:53:29.810Z,95344.09
2023-04-10T16:55:57.297Z,95343.25
2023-04-10T16:58:24.027Z,95345.16
2023-04-10T17:00:50.722Z,95344.56
2023-04-10T17:03:17.390Z,95349.31
2023-04-10T17:05:44.183Z,95347.28
2023-04-10T17:08:10.869Z,95358.56
2023-04-10T17:10:37.540Z,95351.34
2023-04-10T17:13:04.154Z,95355.69
2023-04-10T17:15:30.863Z,95358.78
2023-04-10T17:17:58.729Z,95354.03
2023-04-10T17:20:25.337Z,95362.72
2023-04-10T17:22:52.014Z,95349.69
2023-04-10T17:25:19.018Z,95349.81
2023-04-10T17:27:45.675Z,95344.63
2023-04-10T17:30:13.350Z,95348.91
2023-04-10T17:32:40.053Z,95350.06
2023-04-10T17:35:07.031Z,95341.16
2023-04-10T17:37:33.612Z,95340.84
2023-04-10T17:40:01.218Z,95338.59
2023-04-10T17:42:27.890Z,95335.94
2023-04-10T17:44:54.477Z,95336.59
2023-04-10T17:47:21.172Z,95325.78
2023-04-10T17:49:47.840Z,95314.34
2023-04-10T17:52:14.495Z,95319.16
2023-04-10T17:54:41.146Z,95311.41
2023-04-10T17:57:10.559Z,95305.56
2023-04-10T17:59:37.175Z,95311.47
2023-04-10T18:02:03.809Z,95308.81
2023-04-10T18:04:30.515Z,95312.56
2023-04-10T18:06:57.139Z,95314.56
2023-04-10T18:09:23.857Z,95318.44
2023-04-10T18:11:50.498Z,95320.81
2023-04-10T18:14:17.145Z,95319.75
2023-04-10T18:16:44.128Z,95326.91
2023-04-10T18:19:10.812Z,95327.47
2023-04-10T18:21:37.459Z,95325.47
2023-04-10T18:24:04.539Z,95329.38
2023-04-10T18:26:31.465Z,95323.41
2023-04-10T18:28:58.088Z,95318.06
2023-04-10T18:31:24.758Z,95316.22
2023-04-10T18:34:03.741Z,95321.97
2023-04-10T18:36:34.151Z,95332.75
2023-04-10T18:39:00.890Z,95333.16
2023-04-10T18:41:27.516Z,95339.06
2023-04-10T18:44:04.305Z,95343.63
2023-04-10T18:46:32.287Z,95356.00
2023-04-10T18:48:59.532Z,95359.28
2023-04-10T18:51:26.267Z,95360.72
2023-04-10T18:53:53.153Z,95369.63
2023-04-10T18:56:20.030Z,95379.53
2023-04-10T18:58:48.300Z,95372.16
2023-04-10T19:01:16.561Z,95383.94
2023-04-10T19:03:43.632Z,95385.66
2023-04-10T19:06:10.457Z,95385.25
2023-04-10T19:08:37.253Z,95389.69
2023-04-10T19:11:07.756Z,95399.47
2023-04-10T19:13:34.596Z,95394.22
2023-04-10T19:16:04.954Z,95408.59
2023-04-10T19:18:31.645Z,95407.34
2023-04-10T19:20:59.305Z,95406.69
2023-04-10T19:23:26.611Z,95397.59
2023-04-10T19:25:54.439Z,95397.38
2023-04-10T19:28:23.525Z,95398.31
2023-04-10T19:30:50.411Z,95398.66
2023-04-10T19:33:17.136Z,95400.44
2023-04-10T19:35:43.803Z,95403.59
2023-04-10T19:38:10.418Z,95403.50
2023-04-10T19:40:37.116Z,95406.75
2023-04-10T19:43:04.009Z,95400.94
2023-04-10T19:45:30.659Z,95406.00
2023-04-10T19:47:57.517Z,95402.31
2023-04-10T19:50:24.313Z,95393.78
2023-04-10T19:52:51.589Z,95378.91
2023-04-10T19:55:19.085Z,95375.28
2023-04-10T19:57:47.688Z,95381.28
2023-04-10T20:00:14.416Z,95375.59
2023-04-10T20:02:41.301Z,95370.88
2023-04-10T20:05:08.831Z,95388.47
2023-04-10T20:07:35.503Z,95389.13
2023-04-10T20:10:02.611Z,95388.34
2023-04-10T20:12:30.198Z,95386.59
2023-04-10T20:14:59.680Z,95389.88
2023-04-10T20:17:27.036Z,95395.94
2023-04-10T20:19:53.781Z,95395.78
2023-04-10T20:25:05.284Z,95393.25
2023-04-10T20:27:32.024Z,95393.56
2023-04-10T20:29:58.618Z,95395.19
2023-04-10T20:32:25.316Z,95395.03
2023-04-10T20:34:52.042Z,95399.72
2023-04-10T20:37:18.654Z,95391.28
2023-04-10T20:39:45.325Z,95383.13
2023-04-10T20:42:11.921Z,95378.59
2023-04-10T20:44:38.536Z,95377.50
2023-04-10T20:47:06.152Z,95381.03
2023-04-10T20:49:32.903Z,95365.66
2023-04-10T20:51:59.557Z,95369.88
2023-04-10T20:54:26.184Z,95365.69
2023-04-10T20:56:52.801Z,95370.66
2023-04-10T20:59:19.430Z,95365.59
2023-04-10T21:01:46.104Z,95364.19
2023-04-10T21:04:12.820Z,95362.66
2023-04-10T21:06:39.448Z,95363.84
2023-04-10T21:09:06.067Z,95364.09
2023-04-10T21:11:32.749Z,95364.41
2023-04-10T21:13:59.369Z,95354.94
2023-04-10T21:16:26.058Z,95354.63
2023-04-10T21:18:52.922Z,95356.34
2023-04-10T21:21:19.690Z,95359.84
2023-04-10T21:23:46.325Z,95362.41
2023-04-10T21:26:14.128Z,95369.44
2023-04-10T21:28:40.760Z,95366.94
2023-04-10T21:31:07.398Z,95367.53
2023-04-10T21:33:33.997Z,95370.34
2023-04-10T21:36:00.939Z,95381.66
2023-04-10T21:38:27.669Z,95374.22
2023-04-10T21:40:54.880Z,95383.16
2023-04-10T21:43:22.187Z,95375.34
2023-04-10T21:45:49.190Z,95381.59
2023-04-10T21:48:15.980Z,95387.28
2023-04-10T21:50:42.735Z,95386.09
2023-04-10T21:53:09.329Z,95376.38
2023-04-10T21:55:35.950Z,95358.31
2023-04-10T21:58:02.893Z,95352.81
2023-04-10T22:00:29.701Z,95359.91
2023-04-10T22:02:56.525Z,95338.81
2023-04-10T22:05:23.606Z,95335.63
2023-04-10T22:07:50.432Z,95324.13
2023-04-10T22:10:17.080Z,95325.88
2023-04-10T22:12:44.687Z,95320.25
2023-04-10T22:15:14.950Z,95310.47
2023-04-10T22:17:41.604Z,95304.94
2023-04-10T22:20:08.550Z,95304.81
2023-04-10T22:22:35.176Z,95298.69
2023-04-10T22:25:01.798Z,95297.81
2023-04-10T22:27:28.429Z,95296.72
2023-04-10T22:30:03.132Z,95284.16
2023-04-10T22:32:30.898Z,95286.78
2023-04-10T22:34:59.165Z,95289.38
2023-04-10T22:37:26.367Z,95291.56
2023-04-10T22:39:53.116Z,95287.69
2023-04-10T22:42:19.757Z,95287.88
2023-04-10T22:44:46.372Z,95286.84
2023-04-10T22:47:12.985Z,95296.50
2023-04-10T22:49:39.646Z,95291.22
2023-04-10T22:52:07.242Z,95300.59
2023-04-10T22:54:33.894Z,95302.72
2023-04-10T22:57:00.556Z,95305.47
2023-04-10T22:59:27.160Z,95314.06
2023-04-10T23:01:53.834Z,95318.28
2023-04-10T23:04:20.601Z,95307.97
2023-04-10T23:06:47.428Z,95312.59
2023-04-10T23:09:14.044Z,95299.06
2023-04-10T23:11:40.630Z,95298.78
2023-04-10T23:14:07.293Z,95304.88
2023-04-10T23:16:34.207Z,95304.13
2023-04-10T23:19:00.914Z,95290.75
2023-04-10T23:21:27.681Z,95285.84
2023-04-10T23:23:54.389Z,95275.22
2023-04-10T23:26:21.133Z,95268.63
2023-04-10T23:28:48.156Z,95269.06
2023-04-10T23:31:15.274Z,95274.69
2023-04-10T23:33:42.056Z,95283.94
2023-04-10T23:36:09.006Z,95271.91
2023-04-10T23:38:35.648Z,95252.44
2023-04-10T23:41:02.344Z,95251.03
2023-04-10T23:43:29.003Z,95254.06
2023-04-10T23:45:55.691Z,95247.25
2023-04-10T23:48:22.344Z,95242.09
2023-04-10T23:50:50.405Z,95233.44
2023-04-10T23:53:17.532Z,95237.31
2023-04-10T23:55:44.281Z,95234.09
2023-04-10T23:58:11.155Z,95235.78
